Time;durP1;ratioP1;P1;durP2;ratioP2;P2;SDS_P1;SDS_P2;PMS_P1;PMS_P2;Temp;Humidity;BMP_temperature;BMP_pressure;BME280_temperature;BME280_humidity;BME280_pressure;Samples;Min_cycle;Max_cycle;Signal;HPM_P1;HPM_P2
2021/08/02 00:00:06;;;;;;;5.85;4.63;;;20.10;68.10;;;;;;1490145;39;20492;-59
2021/08/02 00:01:29;;;;;;;8.13;5.35;;;20.10;68.20;;;;;;1489805;39;20028;-59
2021/08/02 00:03:08;;;;;;;5.72;4.22;;;20.10;68.00;;;;;;1492066;39;20040;-58
2021/08/02 00:04:40;;;;;;;4.72;4.30;;;20.10;67.90;;;;;;1489206;39;20027;-58
2021/08/02 00:06:03;;;;;;;5.38;4.88;;;20.10;68.30;;;;;;1489359;39;20058;-59
2021/08/02 00:07:26;;;;;;;5.30;4.90;;;20.20;67.90;;;;;;1491540;39;20067;-59
2021/08/02 00:09:05;;;;;;;5.55;4.90;;;20.10;68.00;;;;;;1486807;39;20040;-60
2021/08/02 00:10:34;;;;;;;5.35;4.85;;;20.10;68.50;;;;;;1489785;39;20124;-59
2021/08/02 00:12:02;;;;;;;5.20;4.55;;;20.10;68.40;;;;;;1489084;39;20031;-60
2021/08/02 00:13:29;;;;;;;5.97;5.38;;;20.10;68.20;;;;;;1487652;39;20032;-59
2021/08/02 00:14:50;;;;;;;6.15;4.93;;;20.10;68.30;;;;;;1490277;39;20080;-58
2021/08/02 00:16:11;;;;;;;5.78;5.18;;;20.10;68.20;;;;;;1485417;39;20121;-59
2021/08/02 00:17:32;;;;;;;5.18;4.68;;;20.10;68.30;;;;;;1491147;39;20027;-58
2021/08/02 00:18:53;;;;;;;6.78;5.53;;;20.10;68.30;;;;;;1490250;39;20359;-59
2021/08/02 00:20:18;;;;;;;5.88;5.28;;;20.10;68.40;;;;;;1492118;39;20050;-59
2021/08/02 00:21:41;;;;;;;5.70;5.07;;;20.10;68.70;;;;;;1487009;39;20028;-60
2021/08/02 00:23:05;;;;;;;5.47;4.97;;;20.10;68.50;;;;;;1488353;39;20430;-58
2021/08/02 00:24:26;;;;;;;6.10;5.53;;;20.10;68.80;;;;;;1489554;39;20022;-59
2021/08/02 00:25:47;;;;;;;6.30;5.13;;;20.10;68.70;;;;;;1489271;39;20066;-59
2021/08/02 00:27:10;;;;;;;5.90;5.25;;;20.10;69.50;;;;;;1489928;39;20044;-59
2021/08/02 00:28:31;;;;;;;5.70;5.20;;;20.10;68.90;;;;;;1490056;39;20016;-58
2021/08/02 00:29:53;;;;;;;6.15;5.45;;;20.10;68.90;;;;;;1491836;39;20031;-59
2021/08/02 00:31:15;;;;;;;5.88;5.32;;;20.10;69.00;;;;;;1489537;39;20028;-59
2021/08/02 00:32:36;;;;;;;5.47;4.97;;;20.10;69.00;;;;;;1490245;39;20075;-59
2021/08/02 00:33:58;;;;;;;5.20;4.80;;;20.10;69.00;;;;;;1489610;39;20290;-59
2021/08/02 00:35:19;;;;;;;5.43;4.93;;;20.10;69.00;;;;;;1486959;39;20039;-59
2021/08/02 00:36:48;;;;;;;5.82;5.18;;;20.10;69.10;;;;;;1487507;39;20459;-59
2021/08/02 00:38:20;;;;;;;5.55;5.03;;;20.10;69.40;;;;;;1491232;39;20032;-59
2021/08/02 00:39:59;;;;;;;5.85;5.22;;;20.10;69.30;;;;;;1488352;39;20120;-59
2021/08/02 00:41:45;;;;;;;6.43;5.03;;;20.10;69.00;;;;;;1489880;39;20065;-60
2021/08/02 00:43:40;;;;;;;5.20;4.65;;;20.10;69.50;;;;;;1489503;39;20131;-59
2021/08/02 00:45:02;;;;;;;5.25;4.72;;;20.10;69.40;;;;;;1488400;39;20023;-59
2021/08/02 00:46:28;;;;;;;5.30;4.72;;;20.10;68.70;;;;;;1491661;39;20047;-60
2021/08/02 00:48:02;;;;;;;5.35;4.85;;;20.10;68.90;;;;;;1489879;39;20036;-59
2021/08/02 00:49:26;;;;;;;4.95;4.50;;;20.10;69.00;;;;;;1488689;39;20031;-58
2021/08/02 00:50:49;;;;;;;5.13;4.63;;;20.10;68.70;;;;;;1488396;39;20012;-59
2021/08/02 00:52:10;;;;;;;5.28;4.78;;;20.10;68.70;;;;;;1486903;40;20035;-60
2021/08/02 00:53:32;;;;;;;5.38;4.88;;;20.10;68.70;;;;;;1484918;40;20061;-59
2021/08/02 00:54:56;;;;;;;5.13;4.63;;;20.10;68.80;;;;;;1488424;39;20024;-59
2021/08/02 00:56:18;;;;;;;5.07;4.53;;;20.10;68.90;;;;;;1489432;39;20020;-59
2021/08/02 00:57:42;;;;;;;5.15;4.65;;;20.10;68.80;;;;;;1489498;39;20064;-58
2021/08/02 00:59:06;;;;;;;6.55;5.22;;;20.10;68.80;;;;;;1492126;39;20066;-59
2021/08/02 01:00:27;;;;;;;5.68;4.82;;;20.10;68.80;;;;;;1491732;39;20023;-58
2021/08/02 01:01:48;;;;;;;5.63;4.78;;;20.10;68.80;;;;;;1490762;39;20036;-59
2021/08/02 01:03:12;;;;;;;5.32;4.82;;;20.10;68.90;;;;;;1491417;39;20360;-59
2021/08/02 01:04:36;;;;;;;5.40;4.90;;;20.00;68.90;;;;;;1488476;39;20254;-60
2021/08/02 01:05:57;;;;;;;5.18;4.70;;;20.10;69.00;;;;;;1490011;39;20023;-58
2021/08/02 01:07:19;;;;;;;6.60;4.95;;;20.00;68.80;;;;;;1488824;39;20051;-60
2021/08/02 01:08:41;;;;;;;5.22;4.32;;;20.10;68.90;;;;;;1489619;39;20389;-60
2021/08/02 01:10:02;;;;;;;5.50;5.00;;;20.00;69.00;;;;;;1491026;39;20054;-59
2021/08/02 01:11:24;;;;;;;5.55;4.63;;;20.00;69.00;;;;;;1490339;39;20055;-59
2021/08/02 01:12:48;;;;;;;5.80;5.20;;;20.00;69.00;;;;;;1489928;39;20039;-58
2021/08/02 01:14:10;;;;;;;5.63;4.93;;;20.00;69.10;;;;;;1491212;39;20128;-58
2021/08/02 01:15:32;;;;;;;6.43;5.13;;;20.00;69.10;;;;;;1490479;39;20028;-58
2021/08/02 01:16:53;;;;;;;5.45;4.95;;;20.10;69.20;;;;;;1489472;39;20032;-59
2021/08/02 01:18:18;;;;;;;5.63;5.10;;;20.10;69.20;;;;;;1489647;39;20068;-60
2021/08/02 01:19:39;;;;;;;6.22;5.10;;;20.10;69.30;;;;;;1487533;39;20032;-60
2021/08/02 01:21:08;;;;;;;5.32;4.70;;;20.00;69.00;;;;;;1487608;39;20051;-58
2021/08/02 01:22:31;;;;;;;5.05;4.55;;;20.10;69.40;;;;;;1490915;39;20041;-59
2021/08/02 01:23:52;;;;;;;5.40;4.90;;;20.10;69.00;;;;;;1490644;39;20034;-59
2021/08/02 01:25:38;;;;;;;6.75;5.05;;;20.10;69.00;;;;;;1489639;39;20016;-59
2021/08/02 01:26:59;;;;;;;6.43;5.03;;;20.10;69.40;;;;;;1489892;39;20052;-58
2021/08/02 01:28:20;;;;;;;5.75;4.28;;;20.10;68.90;;;;;;1489918;39;20020;-58
2021/08/02 01:30:11;;;;;;;4.93;4.43;;;20.10;68.90;;;;;;1487217;39;20024;-58
2021/08/02 01:31:32;;;;;;;4.32;3.92;;;20.00;69.20;;;;;;1488915;39;20031;-58
2021/08/02 01:32:53;;;;;;;7.13;3.95;;;20.10;68.70;;;;;;1488322;39;20035;-59
2021/08/02 01:34:14;;;;;;;5.53;4.45;;;20.10;68.70;;;;;;1492140;39;20439;-58
2021/08/02 01:35:36;;;;;;;4.50;4.10;;;20.10;68.70;;;;;;1490682;39;20550;-59
2021/08/02 01:36:57;;;;;;;5.20;4.45;;;20.10;68.90;;;;;;1489537;39;20044;-59
2021/08/02 01:38:18;;;;;;;4.85;4.45;;;20.00;68.70;;;;;;1490032;39;20020;-59
2021/08/02 01:39:44;;;;;;;4.22;3.83;;;20.00;68.70;;;;;;1489267;39;20024;-58
2021/08/02 01:41:06;;;;;;;5.47;4.25;;;20.00;68.80;;;;;;1489345;39;20032;-58
2021/08/02 01:42:27;;;;;;;6.28;4.15;;;20.00;68.60;;;;;;1488888;39;20276;-58
2021/08/02 01:43:48;;;;;;;5.07;4.30;;;20.00;68.60;;;;;;1490337;39;20032;-59
2021/08/02 01:45:09;;;;;;;6.40;3.75;;;20.00;68.50;;;;;;1490567;39;20047;-58
2021/08/02 01:46:43;;;;;;;4.85;4.10;;;20.00;68.60;;;;;;1491423;39;20027;-59
2021/08/02 01:48:33;;;;;;;4.78;4.28;;;20.00;68.70;;;;;;1489667;39;20283;-58
2021/08/02 01:49:54;;;;;;;;;;;20.00;68.70;;;;;;1486086;39;20029;-59
2021/08/02 01:51:20;;;;;;;4.93;3.58;;;20.00;68.50;;;;;;1491096;39;19932;-58
2021/08/02 01:52:49;;;;;;;4.85;3.47;;;20.10;67.90;;;;;;1491252;39;20153;-58
2021/08/02 01:54:19;;;;;;;5.43;3.67;;;20.00;68.10;;;;;;1490262;39;20279;-59
2021/08/02 01:55:45;;;;;;;5.20;4.18;;;20.00;67.80;;;;;;1491247;39;20134;-59
2021/08/02 01:57:11;;;;;;;5.50;4.00;;;20.00;67.90;;;;;;1489914;39;20032;-59
2021/08/02 01:58:46;;;;;;;4.70;3.90;;;20.00;67.90;;;;;;1489510;39;20027;-59
2021/08/02 02:00:10;;;;;;;4.38;3.97;;;20.00;68.00;;;;;;1491786;39;20064;-59
2021/08/02 02:01:33;;;;;;;5.68;4.03;;;20.00;67.80;;;;;;1489034;39;20344;-58
2021/08/02 02:03:02;;;;;;;5.45;4.38;;;20.00;67.90;;;;;;1489217;39;20028;-58
2021/08/02 02:04:30;;;;;;;3.75;3.35;;;19.90;68.10;;;;;;1490912;39;20601;-58
2021/08/02 02:06:04;;;;;;;3.67;3.38;;;19.90;68.00;;;;;;1488804;39;20077;-59
2021/08/02 02:07:28;;;;;;;3.80;3.45;;;19.90;68.10;;;;;;1490957;39;20132;-58
2021/08/02 02:09:03;;;;;;;4.03;3.40;;;19.90;67.90;;;;;;1492345;39;20656;-58
2021/08/02 02:10:27;;;;;;;3.72;3.42;;;19.90;68.10;;;;;;1491446;39;21720;-58
2021/08/02 02:11:50;;;;;;;5.40;3.72;;;19.90;67.90;;;;;;1490318;39;20042;-58
2021/08/02 02:13:36;;;;;;;4.78;3.65;;;19.90;68.00;;;;;;1489607;39;20505;-58
2021/08/02 02:14:58;;;;;;;3.90;3.38;;;19.90;68.10;;;;;;1493407;39;20028;-60
2021/08/02 02:16:20;;;;;;;4.25;3.40;;;19.90;67.70;;;;;;1491204;39;20085;-60
2021/08/02 02:17:43;;;;;;;4.72;3.58;;;19.80;67.70;;;;;;1491785;39;20050;-60
2021/08/02 02:19:05;;;;;;;5.93;3.40;;;19.90;67.80;;;;;;1488907;39;20047;-60
2021/08/02 02:20:26;;;;;;;5.28;3.83;;;19.80;67.70;;;;;;1492439;39;20359;-60
2021/08/02 02:21:50;;;;;;;5.55;3.13;;;19.80;67.70;;;;;;1491646;39;20633;-59
2021/08/02 02:23:13;;;;;;;5.25;3.10;;;19.80;67.70;;;;;;1492129;39;20039;-59
2021/08/02 02:24:36;;;;;;;4.25;3.22;;;19.80;67.80;;;;;;1492517;39;20238;-60
2021/08/02 02:25:57;;;;;;;3.30;3.00;;;19.80;67.70;;;;;;1489127;39;20040;-60
2021/08/02 02:27:18;;;;;;;6.00;3.58;;;19.80;67.60;;;;;;1491918;39;20028;-60
2021/08/02 02:28:40;;;;;;;5.57;3.42;;;19.80;67.50;;;;;;1489668;39;20146;-60
2021/08/02 02:30:05;;;;;;;4.00;2.83;;;19.80;67.40;;;;;;1490738;39;20039;-60
2021/08/02 02:31:27;;;;;;;8.45;3.25;;;19.80;67.50;;;;;;1488954;39;20391;-60
2021/08/02 02:32:49;;;;;;;5.45;3.22;;;19.80;67.40;;;;;;1489807;39;20028;-59
2021/08/02 02:34:11;;;;;;;4.22;3.10;;;19.80;67.20;;;;;;1488123;39;20038;-59
2021/08/02 02:35:34;;;;;;;3.15;2.85;;;19.80;67.20;;;;;;1490562;39;20032;-59
2021/08/02 02:36:55;;;;;;;7.30;3.65;;;19.80;67.10;;;;;;1493042;39;20037;-59
2021/08/02 02:38:17;;;;;;;4.22;2.90;;;19.80;67.10;;;;;;1491355;39;20044;-59
2021/08/02 02:39:39;;;;;;;5.32;3.15;;;19.80;67.10;;;;;;1490425;39;20238;-59
2021/08/02 02:41:03;;;;;;;3.83;2.72;;;19.80;67.00;;;;;;1491479;39;20031;-60
2021/08/02 02:42:25;;;;;;;2.80;2.55;;;19.80;66.90;;;;;;1493759;39;20019;-60
2021/08/02 02:43:50;;;;;;;4.60;2.92;;;19.80;66.80;;;;;;1488633;39;20052;-60
2021/08/02 02:45:12;;;;;;;3.45;3.13;;;19.80;66.80;;;;;;1488953;39;20036;-59
2021/08/02 02:46:34;;;;;;;4.85;3.05;;;19.80;66.70;;;;;;1490688;39;20022;-59
2021/08/02 02:47:56;;;;;;;6.80;3.10;;;19.70;66.70;;;;;;1491233;39;20406;-59
2021/08/02 02:49:21;;;;;;;4.93;2.92;;;19.70;66.60;;;;;;1492150;39;20039;-60
2021/08/02 02:50:48;;;;;;;3.80;3.13;;;19.70;66.70;;;;;;1488888;39;20027;-59
2021/08/02 02:52:10;;;;;;;3.83;2.80;;;19.80;67.50;;;;;;1487045;40;20024;-59
2021/08/02 02:53:32;;;;;;;5.13;3.17;;;19.70;66.70;;;;;;1485846;39;20455;-60
2021/08/02 02:54:54;;;;;;;5.30;3.47;;;19.70;66.70;;;;;;1489577;39;20408;-59
2021/08/02 02:56:17;;;;;;;3.20;2.88;;;19.70;66.80;;;;;;1485703;39;20028;-59
2021/08/02 02:57:38;;;;;;;4.80;2.90;;;19.70;66.90;;;;;;1489869;39;20024;-59
2021/08/02 02:59:00;;;;;;;4.68;3.05;;;19.70;66.90;;;;;;1490440;39;20043;-59
2021/08/02 03:00:21;;;;;;;4.38;2.97;;;19.70;66.80;;;;;;1491380;39;20024;-59
2021/08/02 03:01:46;;;;;;;3.05;2.75;;;19.70;66.90;;;;;;1491138;39;20033;-60
2021/08/02 03:03:08;;;;;;;3.47;2.88;;;19.70;67.20;;;;;;1488908;39;20041;-60
2021/08/02 03:04:33;;;;;;;5.93;2.88;;;19.70;67.20;;;;;;1489590;39;20024;-60
2021/08/02 03:05:54;;;;;;;6.65;2.85;;;19.70;67.40;;;;;;1491432;39;20570;-60
2021/08/02 03:07:16;;;;;;;5.07;3.10;;;19.70;67.40;;;;;;1488262;39;20369;-60
2021/08/02 03:08:38;;;;;;;5.57;3.10;;;19.70;67.50;;;;;;1488357;39;20024;-59
2021/08/02 03:10:00;;;;;;;5.00;3.53;;;19.70;67.50;;;;;;1490746;39;20059;-59
2021/08/02 03:11:22;;;;;;;2.95;2.50;;;19.70;67.50;;;;;;1488937;39;20040;-60
2021/08/02 03:12:43;;;;;;;3.80;2.88;;;19.70;67.50;;;;;;1488407;39;20167;-60
2021/08/02 03:14:05;;;;;;;5.60;3.53;;;19.60;67.50;;;;;;1492153;39;20043;-60
2021/08/02 03:15:26;;;;;;;3.47;3.17;;;19.70;67.70;;;;;;1491106;39;20036;-59
2021/08/02 03:16:47;;;;;;;3.67;2.45;;;19.70;67.50;;;;;;1491069;39;20020;-60
2021/08/02 03:18:08;;;;;;;4.43;3.10;;;19.70;67.40;;;;;;1490969;39;20036;-59
2021/08/02 03:19:29;;;;;;;3.63;3.20;;;19.70;67.40;;;;;;1491449;39;20028;-57
2021/08/02 03:20:50;;;;;;;7.35;2.85;;;19.70;67.40;;;;;;1488446;39;20044;-60
2021/08/02 03:22:46;;;;;;;6.32;3.33;;;19.70;67.40;;;;;;1485691;39;20024;-60
2021/08/02 03:24:39;;;;;;;4.55;2.78;;;19.70;67.50;;;;;;1491797;39;20071;-60
2021/08/02 03:26:08;;;;;;;2.80;2.28;;;19.70;67.20;;;;;;1489338;39;20039;-60
2021/08/02 03:27:54;;;;;;;3.63;2.65;;;19.70;67.30;;;;;;1489826;39;20140;-60
2021/08/02 03:29:29;;;;;;;3.15;2.65;;;19.70;67.20;;;;;;1489840;39;20068;-60
2021/08/02 03:30:55;;;;;;;6.80;3.58;;;19.70;67.10;;;;;;1491892;39;20084;-58
2021/08/02 03:32:18;;;;;;;3.28;2.78;;;19.70;67.00;;;;;;1491089;39;20035;-60
2021/08/02 03:33:41;;;;;;;4.10;3.30;;;19.70;66.90;;;;;;1489749;39;20031;-60
2021/08/02 03:35:08;;;;;;;4.30;2.97;;;19.70;66.80;;;;;;1490677;39;20284;-60
2021/08/02 03:36:29;;;;;;;4.82;3.10;;;19.70;66.90;;;;;;1485960;39;20356;-60
2021/08/02 03:37:51;;;;;;;4.20;3.13;;;19.70;66.80;;;;;;1490023;39;20094;-59
2021/08/02 03:39:14;;;;;;;5.05;3.00;;;19.70;66.80;;;;;;1486513;40;20047;-60
2021/08/02 03:40:36;;;;;;;4.15;2.60;;;19.70;66.90;;;;;;1484981;40;20051;-59
2021/08/02 03:41:58;;;;;;;4.60;3.05;;;19.70;66.80;;;;;;1489145;39;20035;-59
2021/08/02 03:43:19;;;;;;;4.55;3.25;;;19.60;66.80;;;;;;1489281;39;20273;-59
2021/08/02 03:44:40;;;;;;;4.93;2.85;;;19.60;66.70;;;;;;1484801;39;20028;-60
2021/08/02 03:46:03;;;;;;;4.00;3.60;;;19.70;66.70;;;;;;1488468;39;20044;-60
2021/08/02 03:47:24;;;;;;;4.85;3.50;;;19.60;66.90;;;;;;1489982;39;20036;-59
2021/08/02 03:48:47;;;;;;;4.18;2.88;;;19.60;66.80;;;;;;1489364;39;20387;-59
2021/08/02 03:50:09;;;;;;;4.18;2.90;;;19.60;66.90;;;;;;1491825;39;20291;-59
2021/08/02 03:51:56;;;;;;;3.95;3.00;;;19.70;67.00;;;;;;1491019;39;20120;-59
2021/08/02 03:53:17;;;;;;;3.65;2.20;;;19.60;66.90;;;;;;1486484;39;20036;-59
2021/08/02 03:54:38;;;;;;;3.13;2.67;;;19.70;66.90;;;;;;1487911;39;20032;-59
2021/08/02 03:55:59;;;;;;;8.45;3.50;;;19.70;66.90;;;;;;1490239;39;20461;-59
2021/08/02 03:57:22;;;;;;;3.15;2.85;;;19.70;66.90;;;;;;1490567;39;20028;-60
2021/08/02 03:58:43;;;;;;;3.92;2.95;;;19.70;66.90;;;;;;1489406;39;20101;-60
2021/08/02 04:00:05;;;;;;;3.75;3.35;;;19.70;66.90;;;;;;1490049;39;20035;-59
2021/08/02 04:01:26;;;;;;;4.53;2.97;;;19.70;66.90;;;;;;1488550;39;20035;-60
2021/08/02 04:02:50;;;;;;;4.50;2.72;;;19.70;66.90;;;;;;1485006;39;20110;-59
2021/08/02 04:04:12;;;;;;;3.15;2.60;;;19.60;66.90;;;;;;1489467;39;20024;-60
2021/08/02 04:05:34;;;;;;;2.67;2.42;;;19.70;66.90;;;;;;1489001;39;20120;-60
2021/08/02 04:06:55;;;;;;;3.63;2.47;;;19.70;67.00;;;;;;1490868;39;20124;-59
2021/08/02 04:08:16;;;;;;;5.45;2.83;;;19.70;67.00;;;;;;1489311;39;20389;-60
2021/08/02 04:09:37;;;;;;;3.50;2.60;;;19.70;67.10;;;;;;1491629;39;20072;-59
2021/08/02 04:10:58;;;;;;;5.15;3.17;;;19.70;67.20;;;;;;1489610;39;22010;-59
2021/08/02 04:12:18;;;;;;;4.75;3.30;;;19.70;67.20;;;;;;1491058;39;20016;-60
2021/08/02 04:13:39;;;;;;;3.67;2.67;;;19.70;67.20;;;;;;1488901;39;20089;-61
2021/08/02 04:15:00;;;;;;;4.00;3.00;;;19.70;67.10;;;;;;1490171;39;20038;-60
2021/08/02 04:16:21;;;;;;;4.60;3.03;;;19.70;67.10;;;;;;1490092;39;20424;-59
2021/08/02 04:17:42;;;;;;;3.88;3.17;;;19.70;67.10;;;;;;1490046;39;20028;-59
2021/08/02 04:19:05;;;;;;;3.60;3.00;;;19.70;67.10;;;;;;1488054;39;20044;-59
2021/08/02 04:20:25;;;;;;;4.15;2.97;;;19.70;67.10;;;;;;1490400;39;20016;-60
2021/08/02 04:21:47;;;;;;;3.17;2.83;;;19.60;67.00;;;;;;1490548;39;20035;-59
2021/08/02 04:23:08;;;;;;;3.25;2.63;;;19.70;67.10;;;;;;1486552;40;20023;-60
2021/08/02 04:24:29;;;;;;;3.65;2.40;;;19.70;67.80;;;;;;1485988;40;20083;-59
2021/08/02 04:25:50;;;;;;;4.63;3.00;;;19.70;67.10;;;;;;1488926;39;20035;-60
2021/08/02 04:27:11;;;;;;;3.60;2.83;;;19.70;67.00;;;;;;1485228;39;20040;-59
2021/08/02 04:28:32;;;;;;;3.85;3.08;;;19.60;66.90;;;;;;1487368;39;20144;-60
2021/08/02 04:29:53;;;;;;;4.80;2.80;;;19.60;66.90;;;;;;1486875;39;20035;-61
2021/08/02 04:31:14;;;;;;;3.42;3.00;;;19.60;66.90;;;;;;1490330;39;20040;-59
2021/08/02 04:32:34;;;;;;;4.43;2.45;;;19.60;66.90;;;;;;1487530;39;20024;-59
2021/08/02 04:33:57;;;;;;;3.83;2.88;;;19.60;67.00;;;;;;1484856;40;20349;-59
2021/08/02 04:35:18;;;;;;;3.72;3.08;;;19.60;67.10;;;;;;1489477;39;20065;-59
2021/08/02 04:36:39;;;;;;;8.50;3.05;;;19.60;67.70;;;;;;1487728;39;20341;-59
2021/08/02 04:38:00;;;;;;;4.78;3.00;;;19.60;67.00;;;;;;1490306;39;20120;-60
2021/08/02 04:39:21;;;;;;;3.28;2.53;;;19.60;67.00;;;;;;1490963;39;20330;-60
2021/08/02 04:40:42;;;;;;;3.92;2.80;;;19.60;67.00;;;;;;1490191;39;20071;-59
2021/08/02 04:42:03;;;;;;;5.43;3.30;;;19.60;67.00;;;;;;1490537;39;20047;-60
2021/08/02 04:43:24;;;;;;;4.88;2.97;;;19.60;67.00;;;;;;1490891;39;20054;-59
2021/08/02 04:44:45;;;;;;;4.10;2.90;;;19.60;67.00;;;;;;1492081;39;20561;-60
2021/08/02 04:46:06;;;;;;;3.33;2.95;;;19.60;67.00;;;;;;1490709;39;20031;-59
2021/08/02 04:47:27;;;;;;;3.95;3.08;;;19.60;66.90;;;;;;1489327;39;20072;-59
2021/08/02 04:48:48;;;;;;;6.72;3.05;;;19.60;66.80;;;;;;1489189;39;20058;-59
2021/08/02 04:50:09;;;;;;;3.58;2.70;;;19.60;66.80;;;;;;1488548;39;20353;-59
2021/08/02 04:51:30;;;;;;;6.88;3.08;;;19.60;66.80;;;;;;1486580;39;20336;-59
2021/08/02 04:52:51;;;;;;;4.40;3.05;;;19.60;66.80;;;;;;1490166;39;20193;-60
2021/08/02 04:54:12;;;;;;;4.35;3.30;;;19.60;66.70;;;;;;1485168;39;20046;-60
2021/08/02 04:55:33;;;;;;;3.53;2.92;;;19.60;66.70;;;;;;1490115;39;20238;-59
2021/08/02 04:56:54;;;;;;;4.72;2.95;;;19.60;66.70;;;;;;1489683;39;20028;-60
2021/08/02 04:58:15;;;;;;;6.85;3.30;;;19.60;66.70;;;;;;1488525;39;20419;-60
2021/08/02 04:59:36;;;;;;;3.47;3.10;;;19.60;66.70;;;;;;1489675;39;20032;-60
2021/08/02 05:00:57;;;;;;;3.83;2.70;;;19.60;66.70;;;;;;1488582;39;20129;-59
2021/08/02 05:02:17;;;;;;;3.78;3.15;;;19.60;66.80;;;;;;1483456;40;20068;-59
2021/08/02 05:03:39;;;;;;;4.63;3.08;;;19.60;66.80;;;;;;1489584;39;20046;-60
2021/08/02 05:05:00;;;;;;;3.88;3.15;;;19.60;66.80;;;;;;1490712;39;20043;-59
2021/08/02 05:06:21;;;;;;;5.47;3.25;;;19.50;66.80;;;;;;1489336;39;20116;-59
2021/08/02 05:07:42;;;;;;;3.47;2.80;;;19.50;66.90;;;;;;1489383;39;20031;-59
2021/08/02 05:09:02;;;;;;;4.35;3.30;;;19.60;66.90;;;;;;1488368;39;20357;-59
2021/08/02 05:10:23;;;;;;;3.55;3.25;;;19.60;66.80;;;;;;1490454;39;20076;-60
2021/08/02 05:11:44;;;;;;;3.47;3.17;;;19.60;66.80;;;;;;1485206;39;20150;-59
2021/08/02 05:13:05;;;;;;;6.38;3.10;;;19.50;66.70;;;;;;1488551;39;20036;-59
2021/08/02 05:14:26;;;;;;;5.43;3.17;;;19.60;66.60;;;;;;1489192;39;20035;-60
2021/08/02 05:15:47;;;;;;;8.30;3.30;;;19.50;66.40;;;;;;1489384;39;20034;-60
2021/08/02 05:17:08;;;;;;;5.88;3.17;;;19.50;66.40;;;;;;1488223;39;20112;-59
2021/08/02 05:18:29;;;;;;;4.22;2.75;;;19.50;66.40;;;;;;1490560;39;20112;-59
2021/08/02 05:19:50;;;;;;;3.80;2.90;;;19.60;66.50;;;;;;1490978;39;20105;-59
2021/08/02 05:21:11;;;;;;;3.92;2.70;;;19.60;66.50;;;;;;1489754;39;20038;-60
2021/08/02 05:22:33;;;;;;;6.55;3.25;;;19.50;66.60;;;;;;1490581;39;20269;-59
2021/08/02 05:23:54;;;;;;;4.38;2.83;;;19.60;66.60;;;;;;1489907;39;20381;-60
2021/08/02 05:25:17;;;;;;;5.32;3.00;;;19.60;66.50;;;;;;1487633;39;20073;-59
2021/08/02 05:26:38;;;;;;;4.13;3.05;;;19.60;66.40;;;;;;1489118;39;20028;-59
2021/08/02 05:27:59;;;;;;;4.30;3.00;;;19.60;66.40;;;;;;1488056;39;20368;-59
2021/08/02 05:29:20;;;;;;;5.43;3.10;;;19.60;66.40;;;;;;1487795;39;20269;-60
2021/08/02 05:30:41;;;;;;;3.33;2.50;;;19.60;66.40;;;;;;1490599;39;20035;-60
2021/08/02 05:32:02;;;;;;;2.78;2.50;;;19.60;66.40;;;;;;1490563;39;20066;-59
2021/08/02 05:33:23;;;;;;;3.75;2.55;;;19.60;66.30;;;;;;1489818;39;20039;-59
2021/08/02 05:34:44;;;;;;;6.68;3.08;;;19.60;66.30;;;;;;1488928;39;20032;-59
2021/08/02 05:36:05;;;;;;;4.43;2.85;;;19.60;66.40;;;;;;1490203;39;20039;-59
2021/08/02 05:37:26;;;;;;;3.90;2.88;;;19.60;66.40;;;;;;1487967;39;20290;-59
2021/08/02 05:38:47;;;;;;;4.13;2.85;;;19.70;66.50;;;;;;1486867;39;20575;-60
2021/08/02 05:40:09;;;;;;;4.10;2.70;;;19.70;66.50;;;;;;1486515;39;20443;-59
2021/08/02 05:41:30;;;;;;;3.83;3.03;;;19.70;66.40;;;;;;1485475;40;20055;-60
2021/08/02 05:42:51;;;;;;;4.30;3.00;;;19.70;66.30;;;;;;1490275;39;20032;-60
2021/08/02 05:44:12;;;;;;;3.72;2.65;;;19.70;66.30;;;;;;1484481;39;20072;-60
2021/08/02 05:45:33;;;;;;;6.65;2.90;;;19.70;66.20;;;;;;1487613;39;20354;-60
2021/08/02 05:46:54;;;;;;;5.10;2.95;;;19.70;66.20;;;;;;1491344;39;20027;-59
2021/08/02 05:48:15;;;;;;;2.55;2.33;;;19.70;66.20;;;;;;1483982;40;20039;-60
2021/08/02 05:49:35;;;;;;;2.83;2.25;;;19.70;66.30;;;;;;1488381;39;20382;-60
2021/08/02 05:50:56;;;;;;;3.42;2.60;;;19.70;66.30;;;;;;1489151;39;20374;-59
2021/08/02 05:52:17;;;;;;;3.47;2.72;;;19.70;66.30;;;;;;1490727;39;20039;-59
2021/08/02 05:53:38;;;;;;;4.85;2.78;;;19.70;66.30;;;;;;1487823;39;20335;-60
2021/08/02 05:54:59;;;;;;;3.10;2.30;;;19.70;66.50;;;;;;1487850;39;20089;-58
2021/08/02 05:56:20;;;;;;;3.08;2.05;;;19.70;66.50;;;;;;1490903;39;20016;-59
2021/08/02 05:57:41;;;;;;;2.20;2.00;;;19.70;66.50;;;;;;1489870;39;20028;-59
2021/08/02 05:59:02;;;;;;;3.28;2.42;;;19.80;66.70;;;;;;1489140;39;20036;-60
2021/08/02 06:00:23;;;;;;;3.03;2.60;;;19.80;66.80;;;;;;1490714;39;20035;-59
2021/08/02 06:01:44;;;;;;;3.78;2.95;;;19.80;67.10;;;;;;1489461;39;20039;-59
2021/08/02 06:03:05;;;;;;;3.25;2.70;;;19.80;66.90;;;;;;1489534;39;20389;-60
2021/08/02 06:04:26;;;;;;;4.00;2.88;;;19.80;66.70;;;;;;1489140;39;20049;-59
2021/08/02 06:05:47;;;;;;;2.80;2.42;;;19.90;66.70;;;;;;1488405;39;20039;-60
2021/08/02 06:07:08;;;;;;;6.20;2.97;;;19.80;66.70;;;;;;1488190;39;20029;-60
2021/08/02 06:08:30;;;;;;;4.75;2.85;;;19.90;66.60;;;;;;1489216;39;20024;-59
2021/08/02 06:09:51;;;;;;;3.55;2.60;;;19.90;66.40;;;;;;1490388;39;20043;-59
2021/08/02 06:11:12;;;;;;;5.13;2.88;;;19.90;66.20;;;;;;1491219;39;20044;-59
2021/08/02 06:12:33;;;;;;;3.65;2.55;;;19.90;66.20;;;;;;1488260;39;20336;-60
2021/08/02 06:13:54;;;;;;;2.65;2.42;;;20.00;66.30;;;;;;1488886;39;20028;-59
2021/08/02 06:15:15;;;;;;;2.88;2.38;;;20.00;66.30;;;;;;1489489;39;20035;-59
2021/08/02 06:16:36;;;;;;;2.58;2.30;;;20.00;66.20;;;;;;1490170;39;20345;-59
2021/08/02 06:17:57;;;;;;;5.03;2.60;;;20.00;66.10;;;;;;1488886;39;20372;-60
2021/08/02 06:19:18;;;;;;;3.60;2.45;;;20.00;66.10;;;;;;1488824;39;20020;-60
2021/08/02 06:20:39;;;;;;;3.60;2.67;;;20.00;66.20;;;;;;1490021;39;20032;-60
2021/08/02 06:22:00;;;;;;;5.57;2.33;;;20.00;66.10;;;;;;1487180;39;20036;-59
2021/08/02 06:23:21;;;;;;;2.60;2.28;;;20.10;66.30;;;;;;1486981;39;20020;-59
2021/08/02 06:24:42;;;;;;;3.33;2.60;;;20.10;66.00;;;;;;1490055;39;20117;-60
2021/08/02 06:26:03;;;;;;;6.65;2.90;;;20.10;65.90;;;;;;1490690;39;20031;-59
2021/08/02 06:27:29;;;;;;;3.00;2.28;;;20.10;65.90;;;;;;1490453;39;20020;-59
2021/08/02 06:28:50;;;;;;;3.17;2.38;;;20.10;65.80;;;;;;1489707;39;20039;-60
2021/08/02 06:30:12;;;;;;;2.13;1.83;;;20.10;65.60;;;;;;1491193;39;20393;-59
2021/08/02 06:31:33;;;;;;;3.47;2.22;;;20.20;65.50;;;;;;1489965;39;20024;-59
2021/08/02 06:32:53;;;;;;;5.30;2.55;;;20.20;65.10;;;;;;1490472;39;20040;-59
2021/08/02 06:34:14;;;;;;;3.17;2.00;;;20.20;64.50;;;;;;1491399;39;20031;-59
2021/08/02 06:35:36;;;;;;;3.10;1.95;;;20.20;64.20;;;;;;1490096;39;20094;-59
2021/08/02 06:36:57;;;;;;;2.72;1.83;;;20.20;64.00;;;;;;1490769;39;20281;-59
2021/08/02 06:38:18;;;;;;;2.30;1.70;;;20.20;63.90;;;;;;1489383;39;20032;-59
2021/08/02 06:39:39;;;;;;;3.00;1.83;;;20.30;64.20;;;;;;1489428;39;20101;-60
2021/08/02 06:41:01;;;;;;;4.05;2.20;;;20.30;64.40;;;;;;1489733;39;20071;-60
2021/08/02 06:42:22;;;;;;;3.72;2.20;;;20.30;64.10;;;;;;1486819;40;20039;-60
2021/08/02 06:43:43;;;;;;;3.83;2.40;;;20.30;63.70;;;;;;1488875;39;20036;-60
2021/08/02 06:45:06;;;;;;;2.90;1.95;;;20.30;63.80;;;;;;1489613;39;20039;-59
2021/08/02 06:46:27;;;;;;;4.20;2.40;;;20.30;63.60;;;;;;1488602;39;20039;-60
2021/08/02 06:47:48;;;;;;;4.55;2.63;;;20.30;63.30;;;;;;1492050;39;20023;-59
2021/08/02 06:49:08;;;;;;;4.55;2.70;;;20.30;63.20;;;;;;1487459;40;20031;-59
2021/08/02 06:50:29;;;;;;;4.32;2.53;;;20.40;63.10;;;;;;1488105;39;20750;-59
2021/08/02 06:51:50;;;;;;;4.03;1.70;;;20.40;62.90;;;;;;1488011;39;20038;-59
2021/08/02 06:53:11;;;;;;;4.35;1.80;;;20.40;62.80;;;;;;1489125;39;20103;-59
2021/08/02 06:54:32;;;;;;;3.00;2.20;;;20.40;62.80;;;;;;1491468;39;20016;-59
2021/08/02 06:55:53;;;;;;;2.20;1.80;;;20.40;62.60;;;;;;1488500;39;20042;-59
2021/08/02 06:57:14;;;;;;;2.38;1.88;;;20.40;62.70;;;;;;1490143;39;20027;-59
2021/08/02 06:58:35;;;;;;;3.75;1.77;;;20.40;62.80;;;;;;1489538;39;20112;-59
2021/08/02 06:59:57;;;;;;;2.50;1.70;;;20.50;62.80;;;;;;1493343;39;20063;-60
2021/08/02 07:01:18;;;;;;;5.07;2.28;;;20.40;62.60;;;;;;1491064;39;20032;-59
2021/08/02 07:02:39;;;;;;;5.15;2.10;;;20.50;62.50;;;;;;1489518;39;20031;-59
2021/08/02 07:04:00;;;;;;;2.92;1.80;;;20.50;62.60;;;;;;1490553;39;20047;-60
2021/08/02 07:05:21;;;;;;;2.28;1.92;;;20.50;62.50;;;;;;1491010;39;20117;-59
2021/08/02 07:06:44;;;;;;;4.05;2.22;;;20.50;62.40;;;;;;1489973;39;20551;-60
2021/08/02 07:08:05;;;;;;;4.53;2.28;;;20.50;62.40;;;;;;1489512;39;20284;-60
2021/08/02 07:09:26;;;;;;;3.92;2.20;;;20.50;62.30;;;;;;1489901;39;20450;-59
2021/08/02 07:10:47;;;;;;;4.28;2.40;;;20.50;62.30;;;;;;1488264;39;20062;-59
2021/08/02 07:12:08;;;;;;;5.13;2.58;;;20.50;62.30;;;;;;1491357;39;20376;-59
2021/08/02 07:13:29;;;;;;;4.55;2.13;;;20.60;62.10;;;;;;1490965;39;20113;-59